Beemer, NE (68716)

12:16 AM CST on December 06, 2016 (GMT -0600)
Skywave Wireless, Inc. | | Change Station

Elev 1312 ft 41.84 °N, 96.71 °W | Updated 53 seconds ago

Overcast
Overcast
30.4 °F
Feels Like 25 °F
N
4.9
Wind Variable Wind from SSW
Gusts 4.9 mph

Today
High -- | Low -- °F
--% Chance of Precip.
Yesterday
High -- | Low -- °F
Precip. -- in
Pressure 29.88 in
Visibility 10.0 miles
Clouds Mostly Cloudy 8000 ft
Overcast 10000 ft
Windchill 25 °F
Dew Point 17 °F
Humidity 57%
Rainfall 0.00 in
Snow Depth Not available.
7:41 AM 4:55 PM
Waxing Crescent, 38% visible
METAR KLCG 060555Z AUTO 31021G30KT 10SM BKN080 OVC100 M02/M08 A2988 RMK AO2 T10171085 10059 21017 400701017
Pressure 29.88 in
Visibility 10.0 miles
Clouds Mostly Cloudy 8000 ft
Overcast 10000 ft
Windchill 25 °F
Dew Point 17 °F
Humidity 57%
Rainfall 0.00 in
Snow Depth Not available.
7:41 AM 4:55 PM
Waxing Crescent, 38% visible
METAR KLCG 060555Z AUTO 31021G30KT 10SM BKN080 OVC100 M02/M08 A2988 RMK AO2 T10171085 10059 21017 400701017

10-Day Weather Forecast

Almanac

Astronomy

Dec. 06, 2016 Rise Set
Actual Time
Civil Twilight
Nautical Twilight
Astronomical Twilight
Moon
Length of Visible Light
Length of Day
Tomorrow will be .
, % of the Moon is Illuminated

Today's Extremes

State Highs State Lows

Community

WunderPhotos

Upload Photos

1,955,931 photos uploaded!

WunderBlog® & News

Nearby

Air Quality

  Air Quality AQ Index Pollutant
Not available.

Snow Depth

Station Depth Elevation

Earthquake Activity

City Distance Mag. Time & Date
Minimum magnitude displayed is 2.5.

Coastal Water Temperatures

Place Temperature

Stations

Nearby Weather Stations

Station Location Temp. Windchill Dew Point Humidity Wind Precip. Elev Updated Type
                   

Watches & Warnings

There are currently no watches in effect.